Time;durP1;ratioP1;P1;durP2;ratioP2;P2;SDS_P1;SDS_P2;PMS_P1;PMS_P2;Temp;Humidity;BMP_temperature;BMP_pressure;BME280_temperature;BME280_humidity;BME280_pressure;Samples;Min_cycle;Max_cycle;Signal;HPM_P1;HPM_P2
2023/08/14 00:01:07;;;;;;;;;;;;;;;;;;7301606;19;151642;-79
2023/08/14 00:03:34;;;;;;;;;;;;;;;;;;7300390;19;144376;-79
2023/08/14 00:06:00;;;;;;;;;;;;;;;;;;7301719;19;143554;-79
2023/08/14 00:08:27;;;;;;;;;;;;;;;;;;7299221;19;151885;-78
2023/08/14 00:10:54;;;;;;;;;;;;;;;;;;7299249;19;149662;-79
2023/08/14 00:13:21;;;;;;;;;;;;;;;;;;7301575;19;140615;-79
2023/08/14 00:15:48;;;;;;;;;;;;;;;;;;7300966;19;142952;-79
2023/08/14 00:18:15;;;;;;;;;;;;;;;;;;7299486;19;150439;-79
2023/08/14 00:20:42;;;;;;;;;;;;;;;;;;7300833;19;147300;-79
2023/08/14 00:23:09;;;;;;;;;;;;;;;;;;7301193;19;140513;-79
2023/08/14 00:25:36;;;;;;;;;;;;;;;;;;7301188;19;144341;-78
2023/08/14 00:28:03;;;;;;;;;;;;;;;;;;7300469;19;151860;-79
2023/08/14 00:30:30;;;;;;;;;;;;;;;;;;7300333;19;149246;-80
2023/08/14 00:32:57;;;;;;;;;;;;;;;;;;7299048;19;145440;-79
2023/08/14 00:35:24;;;;;;;;;;;;;;;;;;7300883;19;140541;-79
2023/08/14 00:37:50;;;;;;;;;;;;;;;;;;7297558;19;148384;-79
2023/08/14 00:42:48;;;;;;;;;;;;;;;;;;7300924;19;140433;-79
2023/08/14 00:47:44;;;;;;;;;;;;;;;;;;7302778;19;140812;-78
2023/08/14 00:50:11;;;;;;;;;;;;;;;;;;7299949;19;145101;-78
2023/08/14 00:52:38;;;;;;;;;;;;;;;;;;7299759;19;140700;-78
2023/08/14 00:55:07;;;;;;;;;;;;;;;;;;7300057;19;143889;-79
2023/08/14 00:57:34;;;;;;;;;;;;;;;;;;7300708;19;141630;-79
2023/08/14 01:00:01;;;;;;;;;;;;;;;;;;7303316;19;152812;-79
2023/08/14 01:02:28;;;;;;;;;;;;;;;;;;7306904;19;143660;-79
2023/08/14 01:04:58;;;;;;;;;;;;;;;;;;7307453;19;141834;-79
2023/08/14 01:07:25;;;;;;;;;;;;;;;;;;7304778;19;147610;-79
2023/08/14 01:09:52;;;;;;;;;;;;;;;;;;7306955;19;153476;-79
2023/08/14 01:12:19;;;;;;;;;;;;;;;;;;7305891;19;140771;-80
2023/08/14 01:14:46;;;;;;;;;;;;;;;;;;7306768;19;142314;-80
2023/08/14 01:17:13;;;;;;;;;;;;;;;;;;7305657;19;150329;-82
2023/08/14 01:19:40;;;;;;;;;;;;;;;;;;7305894;19;140778;-80
2023/08/14 01:22:07;;;;;;;;;;;;;;;;;;7306034;19;145692;-79
2023/08/14 01:24:33;;;;;;;;;;;;;;;;;;7306340;19;141304;-78
2023/08/14 01:27:00;;;;;;;;;;;;;;;;;;7305719;19;140526;-76
2023/08/14 01:29:27;;;;;;;;;;;;;;;;;;7305833;19;150825;-79
2023/08/14 01:31:54;;;;;;;;;;;;;;;;;;7304491;19;142084;-78
2023/08/14 01:36:55;;;;;;;;;;;;;;;;;;7306254;19;146990;-81
2023/08/14 01:39:22;;;;;;;;;;;;;;;;;;7304644;19;152198;-80
2023/08/14 01:41:49;;;;;;;;;;;;;;;;;;7306371;19;140711;-79
2023/08/14 01:44:15;;;;;;;;;;;;;;;;;;7305668;19;143275;-79
2023/08/14 01:46:42;;;;;;;;;;;;;;;;;;7305613;19;152126;-79
2023/08/14 01:49:09;;;;;;;;;;;;;;;;;;7304508;19;151038;-77
2023/08/14 01:51:36;;;;;;;;;;;;;;;;;;7305205;19;142342;-78
2023/08/14 01:54:03;;;;;;;;;;;;;;;;;;7304291;19;144152;-80
2023/08/14 01:56:30;;;;;;;;;;;;;;;;;;7305339;19;149886;-79
2023/08/14 01:58:57;;;;;;;;;;;;;;;;;;7303862;19;141266;-79
2023/08/14 02:04:07;;;;;;;;;;;;;;;;;;7308033;19;140666;-80
2023/08/14 02:06:34;;;;;;;;;;;;;;;;;;7305153;19;140733;-79
2023/08/14 02:09:01;;;;;;;;;;;;;;;;;;7303824;19;151741;-79
2023/08/14 02:11:28;;;;;;;;;;;;;;;;;;7303450;19;140600;-79
2023/08/14 02:13:55;;;;;;;;;;;;;;;;;;7305071;19;144319;-79
2023/08/14 02:16:22;;;;;;;;;;;;;;;;;;7304230;19;150058;-79
2023/08/14 02:18:51;;;;;;;;;;;;;;;;;;7302812;19;152628;-78
2023/08/14 02:21:18;;;;;;;;;;;;;;;;;;7303372;19;145984;-79
2023/08/14 02:23:45;;;;;;;;;;;;;;;;;;7303537;19;140660;-79
2023/08/14 02:26:12;;;;;;;;;;;;;;;;;;7305061;19;140762;-79
2023/08/14 02:28:39;;;;;;;;;;;;;;;;;;7302054;19;152914;-78
2023/08/14 02:31:06;;;;;;;;;;;;;;;;;;7302867;19;140855;-78
2023/08/14 02:33:33;;;;;;;;;;;;;;;;;;7302721;19;142893;-79
2023/08/14 02:36:00;;;;;;;;;;;;;;;;;;7304327;19;140472;-79
2023/08/14 02:38:30;;;;;;;;;;;;;;;;;;7303370;19;153153;-79
2023/08/14 02:40:57;;;;;;;;;;;;;;;;;;7304080;19;142440;-79
2023/08/14 02:43:24;;;;;;;;;;;;;;;;;;7303692;19;142432;-79
2023/08/14 02:45:50;;;;;;;;;;;;;;;;;;7305344;19;151211;-79
2023/08/14 02:48:17;;;;;;;;;;;;;;;;;;7303874;19;149842;-79
2023/08/14 02:50:44;;;;;;;;;;;;;;;;;;7303539;19;145441;-79
2023/08/14 02:53:11;;;;;;;;;;;;;;;;;;7303498;19;144223;-79
2023/08/14 02:58:14;;;;;;;;;;;;;;;;;;7308152;19;152758;-79
2023/08/14 03:00:41;;;;;;;;;;;;;;;;;;7328637;19;140881;-77
2023/08/14 03:03:07;;;;;;;;;;;;;;;;;;7337247;19;139223;-78
2023/08/14 03:08:11;;;;;;;;;;;;;;;;;;7321614;19;140814;-79
2023/08/14 03:10:38;;;;;;;;;;;;;;;;;;7322490;19;140299;-78
2023/08/14 03:13:06;;;;;;;;;;;;;;;;;;7320968;19;140373;-79
2023/08/14 03:15:32;;;;;;;;;;;;;;;;;;7303422;19;148591;-78
2023/08/14 03:20:48;;;;;;;;;;;;;;;;;;7301153;19;140485;-79
2023/08/14 03:23:15;;;;;;;;;;;;;;;;;;7298539;19;141315;-80
2023/08/14 03:25:42;;;;;;;;;;;;;;;;;;7300786;19;150542;-79
2023/08/14 03:28:08;;;;;;;;;;;;;;;;;;7302159;19;151229;-80
2023/08/14 03:30:35;;;;;;;;;;;;;;;;;;7302563;19;145609;-77
2023/08/14 03:33:02;;;;;;;;;;;;;;;;;;7301143;19;140561;-79
2023/08/14 03:35:29;;;;;;;;;;;;;;;;;;7301598;19;151810;-78
2023/08/14 03:37:56;;;;;;;;;;;;;;;;;;7302338;19;140658;-78
2023/08/14 03:40:23;;;;;;;;;;;;;;;;;;7301691;19;144467;-78
2023/08/14 03:42:50;;;;;;;;;;;;;;;;;;7302894;19;140920;-78
2023/08/14 03:45:17;;;;;;;;;;;;;;;;;;7302263;19;149593;-79
2023/08/14 03:47:43;;;;;;;;;;;;;;;;;;7299856;19;150693;-78
2023/08/14 03:50:28;;;;;;;;;;;;;;;;;;7300244;19;143978;-78
2023/08/14 03:52:56;;;;;;;;;;;;;;;;;;7301804;19;140779;-78
2023/08/14 03:55:22;;;;;;;;;;;;;;;;;;7300914;19;150354;-78
2023/08/14 03:57:49;;;;;;;;;;;;;;;;;;7299858;19;145524;-79
2023/08/14 04:00:16;;;;;;;;;;;;;;;;;;7301502;19;141166;-78
2023/08/14 04:02:43;;;;;;;;;;;;;;;;;;7300779;19;143060;-77
2023/08/14 04:05:10;;;;;;;;;;;;;;;;;;7301494;19;150591;-79
2023/08/14 04:07:37;;;;;;;;;;;;;;;;;;7300680;19;153019;-78
2023/08/14 04:10:04;;;;;;;;;;;;;;;;;;7299894;19;140670;-78
2023/08/14 04:12:31;;;;;;;;;;;;;;;;;;7301712;19;144657;-78
2023/08/14 04:14:58;;;;;;;;;;;;;;;;;;7300293;19;146448;-78
2023/08/14 04:17:25;;;;;;;;;;;;;;;;;;7300322;19;151651;-78
2023/08/14 04:19:52;;;;;;;;;;;;;;;;;;7300756;19;142315;-78
2023/08/14 04:22:19;;;;;;;;;;;;;;;;;;7300747;19;140643;-79
2023/08/14 04:24:46;;;;;;;;;;;;;;;;;;7298889;19;143995;-78
2023/08/14 04:27:13;;;;;;;;;;;;;;;;;;7296179;19;140916;-79
2023/08/14 04:29:40;;;;;;;;;;;;;;;;;;7299409;19;140503;-79
2023/08/14 04:32:07;;;;;;;;;;;;;;;;;;7300547;19;141375;-79
2023/08/14 04:34:34;;;;;;;;;;;;;;;;;;7302740;19;149998;-76
2023/08/14 04:37:01;;;;;;;;;;;;;;;;;;7307118;19;150654;-77
2023/08/14 04:39:27;;;;;;;;;;;;;;;;;;7305715;19;143094;-77
2023/08/14 04:42:01;;;;;;;;;;;;;;;;;;7306902;19;143809;-78
2023/08/14 04:44:28;;;;;;;;;;;;;;;;;;7307317;19;141861;-80
2023/08/14 04:49:43;;;;;;;;;;;;;;;;;;7305440;19;140644;-76
2023/08/14 04:52:10;;;;;;;;;;;;;;;;;;7307094;19;143540;-77
2023/08/14 04:54:37;;;;;;;;;;;;;;;;;;7306530;19;140814;-77
2023/08/14 04:57:03;;;;;;;;;;;;;;;;;;7305582;19;141103;-77
2023/08/14 04:59:31;;;;;;;;;;;;;;;;;;7307718;19;140385;-76
2023/08/14 05:01:58;;;;;;;;;;;;;;;;;;7305613;19;140477;-78
2023/08/14 05:04:24;;;;;;;;;;;;;;;;;;7306027;19;151063;-78
2023/08/14 05:06:51;;;;;;;;;;;;;;;;;;7306182;19;152378;-78
2023/08/14 05:09:18;;;;;;;;;;;;;;;;;;7306364;19;141982;-78
2023/08/14 05:11:52;;;;;;;;;;;;;;;;;;7306988;19;140401;-78
2023/08/14 05:14:19;;;;;;;;;;;;;;;;;;7306095;19;150812;-78
2023/08/14 05:16:46;;;;;;;;;;;;;;;;;;7306324;19;152657;-78
2023/08/14 05:19:13;;;;;;;;;;;;;;;;;;7305387;19;140706;-78
2023/08/14 05:21:40;;;;;;;;;;;;;;;;;;7306681;19;142874;-81
2023/08/14 05:24:07;;;;;;;;;;;;;;;;;;7305952;19;150969;-81
2023/08/14 05:26:34;;;;;;;;;;;;;;;;;;7306271;19;145171;-78
2023/08/14 05:29:00;;;;;;;;;;;;;;;;;;7306103;19;140585;-79
2023/08/14 05:31:27;;;;;;;;;;;;;;;;;;7305257;19;142197;-79
2023/08/14 05:33:54;;;;;;;;;;;;;;;;;;7306131;19;140525;-79
2023/08/14 05:36:21;;;;;;;;;;;;;;;;;;7304442;19;140956;-79
2023/08/14 05:38:49;;;;;;;;;;;;;;;;;;7305116;19;142974;-78
2023/08/14 05:41:16;;;;;;;;;;;;;;;;;;7305622;19;142877;-79
2023/08/14 05:43:44;;;;;;;;;;;;;;;;;;7305775;19;153116;-81
2023/08/14 05:46:10;;;;;;;;;;;;;;;;;;7301556;19;149877;-80
2023/08/14 05:48:37;;;;;;;;;;;;;;;;;;7306354;19;143104;-80
2023/08/14 05:51:04;;;;;;;;;;;;;;;;;;7305590;19;143549;-79
2023/08/14 05:53:31;;;;;;;;;;;;;;;;;;7304313;19;140960;-80
2023/08/14 05:55:58;;;;;;;;;;;;;;;;;;7304333;19;151929;-80
2023/08/14 05:58:25;;;;;;;;;;;;;;;;;;7305458;19;144968;-80
2023/08/14 06:00:52;;;;;;;;;;;;;;;;;;7305517;19;140608;-79
2023/08/14 06:03:19;;;;;;;;;;;;;;;;;;7301953;19;148455;-78
2023/08/14 06:12:05;;;;;;;;;;;;;;;;;;7302633;19;140606;-74
2023/08/14 06:14:32;;;;;;;;;;;;;;;;;;7304386;19;144537;-74
2023/08/14 06:16:59;;;;;;;;;;;;;;;;;;7304668;19;141163;-74
2023/08/14 06:19:26;;;;;;;;;;;;;;;;;;7307665;19;140752;-75
2023/08/14 06:21:55;;;;;;;;;;;;;;;;;;7304857;19;140820;-74
2023/08/14 06:24:22;;;;;;;;;;;;;;;;;;7303926;19;140466;-74
2023/08/14 06:26:49;;;;;;;;;;;;;;;;;;7301864;19;153523;-75
2023/08/14 06:29:17;;;;;;;;;;;;;;;;;;7303833;19;145844;-75
2023/08/14 06:31:44;;;;;;;;;;;;;;;;;;7304149;19;144692;-75
2023/08/14 06:34:11;;;;;;;;;;;;;;;;;;7303794;19;141967;-75
2023/08/14 06:36:38;;;;;;;;;;;;;;;;;;7302801;19;152460;-76
2023/08/14 06:39:05;;;;;;;;;;;;;;;;;;7303574;19;140642;-78
2023/08/14 06:41:32;;;;;;;;;;;;;;;;;;7302671;19;143541;-80
2023/08/14 06:43:59;;;;;;;;;;;;;;;;;;7302561;19;146568;-80
2023/08/14 06:46:26;;;;;;;;;;;;;;;;;;7303262;19;151409;-79
2023/08/14 06:48:53;;;;;;;;;;;;;;;;;;7301954;19;144957;-80
2023/08/14 06:51:22;;;;;;;;;;;;;;;;;;7301262;19;143493;-82
2023/08/14 06:53:49;;;;;;;;;;;;;;;;;;7304011;19;149031;-78
2023/08/14 06:56:19;;;;;;;;;;;;;;;;;;7302701;19;153093;-80
2023/08/14 06:58:46;;;;;;;;;;;;;;;;;;7302339;19;140888;-80
2023/08/14 07:01:13;;;;;;;;;;;;;;;;;;7301571;19;144591;-83
2023/08/14 07:03:40;;;;;;;;;;;;;;;;;;7305124;19;140534;-81
2023/08/14 07:06:07;;;;;;;;;;;;;;;;;;7302599;19;141045;-81
2023/08/14 07:08:34;;;;;;;;;;;;;;;;;;7301656;19;144764;-81
2023/08/14 07:11:00;;;;;;;;;;;;;;;;;;7303064;19;140499;-81
2023/08/14 07:13:27;;;;;;;;;;;;;;;;;;7303010;19;149618;-81
2023/08/14 07:15:54;;;;;;;;;;;;;;;;;;7303478;19;140875;-80
2023/08/14 07:18:21;;;;;;;;;;;;;;;;;;7302662;19;144927;-81
2023/08/14 07:20:48;;;;;;;;;;;;;;;;;;7302563;19;141155;-79
2023/08/14 07:23:15;;;;;;;;;;;;;;;;;;7303305;19;151323;-81
2023/08/14 07:25:42;;;;;;;;;;;;;;;;;;7299802;19;154591;-86
2023/08/14 07:28:11;;;;;;;;;;;;;;;;;;7302095;19;145680;-81
2023/08/14 07:30:40;;;;;;;;;;;;;;;;;;7302787;19;143637;-79
2023/08/14 07:33:10;;;;;;;;;;;;;;;;;;7302767;19;144608;-79
2023/08/14 07:35:37;;;;;;;;;;;;;;;;;;7298531;19;151878;-78
2023/08/14 07:38:06;;;;;;;;;;;;;;;;;;7298852;19;140463;-77
2023/08/14 07:40:33;;;;;;;;;;;;;;;;;;7301373;19;141224;-76
2023/08/14 07:43:00;;;;;;;;;;;;;;;;;;7303155;19;140807;-77
2023/08/14 07:45:27;;;;;;;;;;;;;;;;;;7300642;19;141051;-74
2023/08/14 07:47:58;;;;;;;;;;;;;;;;;;7300969;19;141238;-75
2023/08/14 07:50:25;;;;;;;;;;;;;;;;;;7301515;19;144254;-79
2023/08/14 07:53:01;;;;;;;;;;;;;;;;;;7300189;19;149184;-79
2023/08/14 07:55:28;;;;;;;;;;;;;;;;;;7299261;19;152056;-79
2023/08/14 07:57:55;;;;;;;;;;;;;;;;;;7300678;19;140865;-79
2023/08/14 08:00:22;;;;;;;;;;;;;;;;;;7302575;19;140889;-79
2023/08/14 08:02:49;;;;;;;;;;;;;;;;;;7301961;19;140723;-79
2023/08/14 08:05:16;;;;;;;;;;;;;;;;;;7301240;19;148625;-79
2023/08/14 08:07:45;;;;;;;;;;;;;;;;;;7302709;19;145116;-78
2023/08/14 08:10:12;;;;;;;;;;;;;;;;;;7315164;19;140507;-78
2023/08/14 08:12:39;;;;;;;;;;;;;;;;;;7333207;19;146057;-78
2023/08/14 08:15:06;;;;;;;;;;;;;;;;;;7332038;19;152789;-77
2023/08/14 08:17:33;;;;;;;;;;;;;;;;;;7308460;19;144558;-79
2023/08/14 08:20:00;;;;;;;;;;;;;;;;;;7310852;19;140686;-79
2023/08/14 08:22:27;;;;;;;;;;;;;;;;;;7309634;19;140630;-79
2023/08/14 08:24:54;;;;;;;;;;;;;;;;;;7300436;19;149996;-78
2023/08/14 08:27:21;;;;;;;;;;;;;;;;;;7300750;19;142293;-79
2023/08/14 08:29:48;;;;;;;;;;;;;;;;;;7300893;19;142603;-79
2023/08/14 08:32:15;;;;;;;;;;;;;;;;;;7300963;19;140816;-79
2023/08/14 08:34:42;;;;;;;;;;;;;;;;;;7300816;19;143109;-79
2023/08/14 08:37:09;;;;;;;;;;;;;;;;;;7300321;19;141678;-78
2023/08/14 08:39:36;;;;;;;;;;;;;;;;;;7299689;19;143771;-79
2023/08/14 08:42:02;;;;;;;;;;;;;;;;;;7300151;19;149529;-79
2023/08/14 08:44:29;;;;;;;;;;;;;;;;;;7300394;19;146505;-79
2023/08/14 08:46:56;;;;;;;;;;;;;;;;;;7299940;19;145169;-76
2023/08/14 08:49:23;;;;;;;;;;;;;;;;;;7299882;19;140436;-76
2023/08/14 08:51:54;;;;;;;;;;;;;;;;;;7301879;19;140600;-74
2023/08/14 08:54:20;;;;;;;;;;;;;;;;;;7297692;19;150604;-74
2023/08/14 08:56:47;;;;;;;;;;;;;;;;;;7299322;19;140426;-77
2023/08/14 08:59:14;;;;;;;;;;;;;;;;;;7300039;19;143529;-78
2023/08/14 09:01:41;;;;;;;;;;;;;;;;;;7300265;19;150839;-79
2023/08/14 09:06:53;;;;;;;;;;;;;;;;;;7300593;19;140787;-80
2023/08/14 09:09:21;;;;;;;;;;;;;;;;;;7301391;19;140767;-81
2023/08/14 09:11:48;;;;;;;;;;;;;;;;;;7298794;19;140648;-79
2023/08/14 09:17:04;;;;;;;;;;;;;;;;;;7244837;19;143153;-79
2023/08/14 09:19:31;;;;;;;;;;;;;;;;;;7298501;19;140849;-77
2023/08/14 09:21:58;;;;;;;;;;;;;;;;;;7303554;19;149599;-76
2023/08/14 09:24:25;;;;;;;;;;;;;;;;;;7307628;19;141337;-76
2023/08/14 09:26:57;;;;;;;;;;;;;;;;;;7305006;19;140535;-75
2023/08/14 09:32:12;;;;;;;;;;;;;;;;;;7304533;19;140573;-76
2023/08/14 09:34:44;;;;;;;;;;;;;;;;;;7305979;19;141270;-78
2023/08/14 09:37:11;;;;;;;;;;;;;;;;;;7306313;19;140668;-80
2023/08/14 09:39:38;;;;;;;;;;;;;;;;;;7308570;19;140467;-81
2023/08/14 09:42:05;;;;;;;;;;;;;;;;;;7308241;19;146452;-69
2023/08/14 09:44:32;;;;;;;;;;;;;;;;;;7304268;19;141299;-74
2023/08/14 09:46:58;;;;;;;;;;;;;;;;;;7305661;19;142751;-74
2023/08/14 09:49:26;;;;;;;;;;;;;;;;;;7305034;19;143818;-75
2023/08/14 09:51:54;;;;;;;;;;;;;;;;;;7304110;19;150988;-71
2023/08/14 09:54:21;;;;;;;;;;;;;;;;;;7304139;19;151285;-72
2023/08/14 09:56:53;;;;;;;;;;;;;;;;;;7304555;19;140497;-72
2023/08/14 09:59:20;;;;;;;;;;;;;;;;;;7304406;19;140633;-73
2023/08/14 10:01:49;;;;;;;;;;;;;;;;;;7303340;19;150555;-73
2023/08/14 10:04:17;;;;;;;;;;;;;;;;;;7304510;19;152601;-71
2023/08/14 10:06:43;;;;;;;;;;;;;;;;;;7304565;19;143213;-71
2023/08/14 10:09:10;;;;;;;;;;;;;;;;;;7304609;19;142427;-73
2023/08/14 10:11:38;;;;;;;;;;;;;;;;;;7304002;19;152069;-73
2023/08/14 10:14:05;;;;;;;;;;;;;;;;;;7303979;19;153236;-73
2023/08/14 10:16:31;;;;;;;;;;;;;;;;;;7304684;19;143243;-72
2023/08/14 10:18:58;;;;;;;;;;;;;;;;;;7305143;19;140747;-72
2023/08/14 10:21:26;;;;;;;;;;;;;;;;;;7304402;19;151035;-73
2023/08/14 10:23:56;;;;;;;;;;;;;;;;;;7304897;19;144962;-71
2023/08/14 10:26:25;;;;;;;;;;;;;;;;;;7303057;19;141090;-73
2023/08/14 10:28:53;;;;;;;;;;;;;;;;;;7304535;19;144010;-77
2023/08/14 10:31:20;;;;;;;;;;;;;;;;;;7304932;19;140478;-72
2023/08/14 10:33:47;;;;;;;;;;;;;;;;;;7302068;19;154459;-72
2023/08/14 10:36:14;;;;;;;;;;;;;;;;;;7304556;19;140659;-73
2023/08/14 10:38:41;;;;;;;;;;;;;;;;;;7303631;19;142472;-73
2023/08/14 10:41:08;;;;;;;;;;;;;;;;;;7302981;19;152972;-72
2023/08/14 10:43:34;;;;;;;;;;;;;;;;;;7304229;19;140726;-72
2023/08/14 10:46:01;;;;;;;;;;;;;;;;;;7304189;19;140725;-72
2023/08/14 10:48:31;;;;;;;;;;;;;;;;;;7303495;19;143245;-72
2023/08/14 10:50:59;;;;;;;;;;;;;;;;;;7303668;19;140481;-72
2023/08/14 10:53:26;;;;;;;;;;;;;;;;;;7302966;19;149232;-72
2023/08/14 10:55:53;;;;;;;;;;;;;;;;;;7302643;19;142500;-73
2023/08/14 10:58:20;;;;;;;;;;;;;;;;;;7303611;19;143318;-73
2023/08/14 11:00:46;;;;;;;;;;;;;;;;;;7303430;19;147852;-73
2023/08/14 11:03:13;;;;;;;;;;;;;;;;;;7302438;19;149017;-72
2023/08/14 11:05:40;;;;;;;;;;;;;;;;;;7303992;19;140592;-72
2023/08/14 11:08:07;;;;;;;;;;;;;;;;;;7305880;19;140491;-71
2023/08/14 11:10:34;;;;;;;;;;;;;;;;;;7301955;19;148081;-71
2023/08/14 11:13:01;;;;;;;;;;;;;;;;;;7302767;19;142468;-71
2023/08/14 11:15:28;;;;;;;;;;;;;;;;;;7302738;19;143451;-72
2023/08/14 11:17:55;;;;;;;;;;;;;;;;;;7302585;19;143863;-72
2023/08/14 11:20:22;;;;;;;;;;;;;;;;;;7302568;19;149712;-72
2023/08/14 11:22:48;;;;;;;;;;;;;;;;;;7300472;19;153221;-72
2023/08/14 11:25:15;;;;;;;;;;;;;;;;;;7302201;19;144774;-73
2023/08/14 11:27:43;;;;;;;;;;;;;;;;;;7302388;19;140608;-72
2023/08/14 11:30:10;;;;;;;;;;;;;;;;;;7302440;19;140564;-72
2023/08/14 11:32:40;;;;;;;;;;;;;;;;;;7301611;19;151534;-71
2023/08/14 11:35:07;;;;;;;;;;;;;;;;;;7302327;19;142727;-71
2023/08/14 11:37:34;;;;;;;;;;;;;;;;;;7302046;19;145652;-72
2023/08/14 11:40:01;;;;;;;;;;;;;;;;;;7301996;19;140701;-72
2023/08/14 11:42:28;;;;;;;;;;;;;;;;;;7301188;19;147662;-72
2023/08/14 11:44:55;;;;;;;;;;;;;;;;;;7299719;19;140700;-71
2023/08/14 11:47:24;;;;;;;;;;;;;;;;;;7299260;19;142654;-72
2023/08/14 11:49:51;;;;;;;;;;;;;;;;;;7301400;19;146958;-72
2023/08/14 11:52:18;;;;;;;;;;;;;;;;;;7301038;19;141092;-73
2023/08/14 11:54:45;;;;;;;;;;;;;;;;;;7301048;19;146679;-72
2023/08/14 11:57:13;;;;;;;;;;;;;;;;;;7300964;19;143756;-72
2023/08/14 11:59:40;;;;;;;;;;;;;;;;;;7300557;19;151206;-71
2023/08/14 12:02:07;;;;;;;;;;;;;;;;;;7299828;19;153397;-71
2023/08/14 12:04:34;;;;;;;;;;;;;;;;;;7300390;19;143508;-72
2023/08/14 12:07:00;;;;;;;;;;;;;;;;;;7300778;19;141544;-72
2023/08/14 12:09:27;;;;;;;;;;;;;;;;;;7300107;19;141239;-72
2023/08/14 12:11:54;;;;;;;;;;;;;;;;;;7298784;19;150429;-73
2023/08/14 12:14:21;;;;;;;;;;;;;;;;;;7298332;19;142872;-75
2023/08/14 12:22:26;;;;;;;;;;;;;;;;;;7299787;19;140627;-81
2023/08/14 12:24:53;;;;;;;;;;;;;;;;;;7302451;19;140554;-83
2023/08/14 12:27:20;;;;;;;;;;;;;;;;;;7299609;19;142847;-81
2023/08/14 12:33:13;;;;;;;;;;;;;;;;;;;;;
2023/08/14 12:44:44;;;;;;;12.30;5.23;;;;;;;;;;6307250;19;3491261;-82
2023/08/14 12:47:11;;;;;;;13.18;4.10;;;;;;;;;;7336495;19;140899;-79
2023/08/14 12:49:41;;;;;;;9.90;3.75;;;;;;;;;;7335489;19;141312;-81
2023/08/14 12:58:00;;;;;;;12.85;4.38;;;;;;;;;;7325710;19;144656;-79
2023/08/14 13:00:32;;;;;;;10.82;3.72;;;;;;;;;;7334176;19;140627;-79
2023/08/14 13:06:18;;;;;;;7.82;3.03;;;;;;;;;;7342019;19;140404;-79
2023/08/14 13:12:33;;;;;;;45.97;8.13;;;;;;;;;;7247808;19;143764;31
2023/08/14 13:18:06;;;;;;;8.13;3.20;;;;;;;;;;7338025;19;140432;-80
2023/08/14 13:20:49;;;;;;;12.10;3.67;;;;;;;;;;7337269;19;140858;-79
2023/08/14 13:23:17;;;;;;;10.15;3.05;;;;;;;;;;7333784;19;142115;-78
2023/08/14 13:25:44;;;;;;;8.60;2.80;;;;;;;;;;7333906;19;142024;-79
2023/08/14 13:28:24;;;;;;;8.18;2.85;;;;;;;;;;7333110;19;141329;-80
2023/08/14 13:30:53;;;;;;;5.60;2.67;;;;;;;;;;7334143;19;140772;-88
2023/08/14 13:36:42;;;;;;;5.90;3.05;;;;;;;;;;7272933;19;143224;-81
2023/08/14 13:39:11;;;;;;;92.68;71.20;;;;;;;;;;7336964;19;140455;-95
2023/08/14 13:41:41;;;;;;;43.92;39.55;;;;;;;;;;7343001;19;140359;-94
2023/08/14 13:47:34;;;;;;;44.13;39.97;;;;;;;;;;7316616;19;143387;-93
2023/08/14 13:50:22;;;;;;;91.88;71.30;;;;;;;;;;7343700;19;140380;-96
2023/08/14 13:58:53;;;;;;;87.88;68.68;;;;;;;;;;7313468;19;140735;-96
2023/08/14 14:04:29;;;;;;;128.40;89.55;;;;;;;;;;7312415;19;140517;-96
2023/08/14 14:06:57;;;;;;;53.22;47.67;;;;;;;;;;7310011;19;142116;-92
2023/08/14 14:09:24;;;;;;;8.45;3.40;;;;;;;;;;7312563;19;142739;-93
2023/08/14 14:11:54;;;;;;;9.73;4.22;;;;;;;;;;7315461;19;140376;-96
2023/08/14 14:14:47;;;;;;;13.57;12.25;;;;;;;;;;7309001;19;140472;-93
2023/08/14 14:17:14;;;;;;;25.70;23.05;;;;;;;;;;7313192;19;140405;-93
2023/08/14 14:19:43;;;;;;;79.07;64.85;;;;;;;;;;7307506;19;141123;-92
2023/08/14 14:22:10;;;;;;;34.97;31.52;;;;;;;;;;7307770;19;140764;-85
2023/08/14 14:27:22;;;;;;;5.15;2.70;;;;;;;;;;7305746;19;140421;-90
2023/08/14 14:30:20;;;;;;;17.10;12.10;;;;;;;;;;7305429;19;140820;-89
2023/08/14 14:32:48;;;;;;;10.98;5.35;;;;;;;;;;7305065;19;140741;-87
2023/08/14 14:35:15;;;;;;;93.93;63.33;;;;;;;;;;7296963;19;140509;-79
2023/08/14 14:37:43;;;;;;;84.47;65.80;;;;;;;;;;7302882;19;140999;-79
2023/08/14 14:40:10;;;;;;;31.35;28.17;;;;;;;;;;7304053;19;142756;-81
2023/08/14 14:48:43;;;;;;;15.68;5.30;;;;;;;;;;7288262;19;143807;-81
2023/08/14 14:51:10;;;;;;;7.43;3.50;;;;;;;;;;7299439;19;143128;-81
2023/08/14 14:59:43;;;;;;;20.80;9.57;;;;;;;;;;7283346;19;140588;-84
2023/08/14 15:02:10;;;;;;;7.18;3.50;;;;;;;;;;7303346;19;142761;-83
2023/08/14 15:04:53;;;;;;;6.53;2.80;;;;;;;;;;7301081;19;140409;-77
2023/08/14 15:07:20;;;;;;;6.22;2.55;;;;;;;;;;7303904;19;140638;-78
2023/08/14 15:12:53;;;;;;;7.78;2.58;;;;;;;;;;7299870;19;140864;-81
2023/08/14 15:15:21;;;;;;;6.18;2.50;;;;;;;;;;7303293;19;140690;-78
2023/08/14 15:17:48;;;;;;;8.82;2.15;;;;;;;;;;7302524;19;141026;-76
2023/08/14 15:20:16;;;;;;;3.75;1.73;;;;;;;;;;7303118;19;140588;-76
2023/08/14 15:22:43;;;;;;;7.43;2.15;;;;;;;;;;7301050;19;142868;-75
2023/08/14 15:25:11;;;;;;;7.07;1.85;;;;;;;;;;7301469;19;140549;-76
2023/08/14 15:27:38;;;;;;;20.70;4.55;;;;;;;;;;7299998;19;141264;-76
2023/08/14 15:30:06;;;;;;;7.68;2.30;;;;;;;;;;7300546;19;141207;-77
2023/08/14 15:32:33;;;;;;;9.50;2.70;;;;;;;;;;7300472;19;142127;-77
2023/08/14 15:35:01;;;;;;;5.60;2.40;;;;;;;;;;7301793;19;140736;-78
2023/08/14 15:40:22;;;;;;;11.32;2.05;;;;;;;;;;7304632;19;140382;-78
2023/08/14 15:42:49;;;;;;;6.30;1.92;;;;;;;;;;7299602;19;141341;-78
2023/08/14 15:47:59;;;;;;;6.63;2.25;;;;;;;;;;7302371;19;140976;-78
2023/08/14 15:50:27;;;;;;;6.57;2.28;;;;;;;;;;7299453;19;141501;-79
2023/08/14 15:55:57;;;;;;;4.97;1.98;;;;;;;;;;7298006;19;140617;-79
2023/08/14 15:58:24;;;;;;;6.57;2.17;;;;;;;;;;7300173;19;140496;-79
2023/08/14 16:00:51;;;;;;;9.13;2.78;;;;;;;;;;7301515;19;140596;-79
2023/08/14 16:03:19;;;;;;;4.20;1.73;;;;;;;;;;7301706;19;140872;-79
2023/08/14 16:05:53;;;;;;;4.13;2.03;;;;;;;;;;7295437;19;140513;-79
2023/08/14 16:08:20;;;;;;;5.47;2.03;;;;;;;;;;7300301;19;140619;-78
2023/08/14 16:10:48;;;;;;;4.30;1.73;;;;;;;;;;7301083;19;142054;-78
2023/08/14 16:13:15;;;;;;;8.65;2.15;;;;;;;;;;7300719;19;142034;-78
2023/08/14 16:15:42;;;;;;;6.45;2.03;;;;;;;;;;7301435;19;140842;-79
2023/08/14 16:18:09;;;;;;;9.57;2.75;;;;;;;;;;7300871;19;140608;-79
2023/08/14 16:20:36;;;;;;;2.85;1.50;;;;;;;;;;7301230;19;140732;-79
2023/08/14 16:23:04;;;;;;;5.82;1.80;;;;;;;;;;7300683;19;141968;-78
2023/08/14 16:25:34;;;;;;;23.50;4.85;;;;;;;;;;7298769;19;140523;-81
2023/08/14 16:28:22;;;;;;;6.33;2.00;;;;;;;;;;7300132;19;140552;-82
2023/08/14 16:33:45;;;;;;;4.28;1.92;;;;;;;;;;7303532;19;141789;-79
2023/08/14 16:36:12;;;;;;;4.85;1.70;;;;;;;;;;7299773;19;140542;-80
2023/08/14 16:38:39;;;;;;;5.35;1.88;;;;;;;;;;7301690;19;140764;-78
2023/08/14 16:44:09;;;;;;;10.40;2.65;;;;;;;;;;7295511;19;140668;-80
2023/08/14 16:46:43;;;;;;;4.05;1.73;;;;;;;;;;7303419;19;140410;-82
2023/08/14 16:49:10;;;;;;;8.35;2.33;;;;;;;;;;7292232;19;140659;-82
2023/08/14 16:54:40;;;;;;;5.32;1.80;;;;;;;;;;7297488;19;140849;-80
2023/08/14 16:57:16;;;;;;;5.22;2.15;;;;;;;;;;7297995;19;140540;-80
2023/08/14 17:02:47;;;;;;;7.93;1.83;;;;;;;;;;7292399;19;140703;-78
2023/08/14 17:14:34;;;;;;;4.60;1.98;;;;;;;;;;7290564;19;140590;-80
2023/08/14 17:26:27;;;;;;;7.40;2.13;;;;;;;;;;7297658;19;140921;-79
2023/08/14 17:29:03;;;;;;;5.72;2.08;;;;;;;;;;7301917;19;142518;-79
2023/08/14 17:31:31;;;;;;;6.13;2.13;;;;;;;;;;7306450;19;140706;-78
2023/08/14 17:33:58;;;;;;;7.95;1.95;;;;;;;;;;7305016;19;140643;-80
2023/08/14 17:36:25;;;;;;;5.78;2.33;;;;;;;;;;7304263;19;142200;-77
2023/08/14 17:38:53;;;;;;;5.35;2.00;;;;;;;;;;7305689;19;142426;-79
2023/08/14 17:41:20;;;;;;;6.90;2.65;;;;;;;;;;7306814;19;141093;-78
2023/08/14 17:43:57;;;;;;;7.63;3.08;;;;;;;;;;7305152;19;140680;-77
2023/08/14 17:46:24;;;;;;;9.68;5.50;;;;;;;;;;7301506;19;141701;-78
2023/08/14 17:48:51;;;;;;;12.07;7.07;;;;;;;;;;7304865;19;140733;-78
2023/08/14 17:54:21;;;;;;;13.45;8.63;;;;;;;;;;7304599;19;140989;-78
2023/08/14 17:56:57;;;;;;;15.52;9.10;;;;;;;;;;7303188;19;141555;-77
2023/08/14 17:59:24;;;;;;;12.55;10.05;;;;;;;;;;7303202;19;141003;-78
2023/08/14 18:01:52;;;;;;;16.40;10.88;;;;;;;;;;7305692;19;140411;-77
2023/08/14 18:04:19;;;;;;;15.20;10.52;;;;;;;;;;7282981;19;143293;-77
2023/08/14 18:14:02;;;;;;;11.00;7.63;;;;;;;;;;7320276;19;140452;-81
2023/08/14 18:22:35;;;;;;;8.40;6.93;;;;;;;;;;7236238;19;144047;-81
2023/08/14 18:31:26;;;;;;;9.65;5.88;;;;;;;;;;7304418;19;143202;-80
2023/08/14 18:33:53;;;;;;;9.35;5.70;;;;;;;;;;7305160;19;141110;-80
2023/08/14 18:39:40;;;;;;;7.55;5.05;;;;;;;;;;7305134;19;140569;-80
2023/08/14 18:42:11;;;;;;;9.43;4.82;;;;;;;;;;7302315;19;140667;-80
2023/08/14 18:54:09;;;;;;;10.77;4.30;;;;;;;;;;7281439;19;141669;-80
2023/08/14 18:56:37;;;;;;;9.55;3.90;;;;;;;;;;7302754;19;142054;-80